sensor_id;sensor_type;location;lat;lon;timestamp;P1;durP1;ratioP1;P2;durP2;ratioP2
74152;SDS011;62505;46.070;14.492;2022-12-18T00:01:58;10.35;;;5.65;;
74152;SDS011;62505;46.070;14.492;2022-12-18T00:04:26;8.45;;;5.03;;
74152;SDS011;62505;46.070;14.492;2022-12-18T00:06:53;7.45;;;5.90;;
74152;SDS011;62505;46.070;14.492;2022-12-18T00:09:20;7.18;;;4.85;;
74152;SDS011;62505;46.070;14.492;2022-12-18T00:11:47;8.27;;;5.43;;
74152;SDS011;62505;46.070;14.492;2022-12-18T00:14:16;8.95;;;5.10;;
74152;SDS011;62505;46.070;14.492;2022-12-18T00:16:43;8.00;;;5.25;;
74152;SDS011;62505;46.070;14.492;2022-12-18T00:19:10;8.25;;;4.93;;
74152;SDS011;62505;46.070;14.492;2022-12-18T00:21:40;6.35;;;4.72;;
74152;SDS011;62505;46.070;14.492;2022-12-18T00:24:07;7.03;;;4.90;;
74152;SDS011;62505;46.070;14.492;2022-12-18T00:26:35;10.00;;;5.18;;
74152;SDS011;62505;46.070;14.492;2022-12-18T00:29:03;8.50;;;5.22;;
74152;SDS011;62505;46.070;14.492;2022-12-18T00:31:33;6.80;;;4.90;;
74152;SDS011;62505;46.070;14.492;2022-12-18T00:34:01;6.93;;;4.97;;
74152;SDS011;62505;46.070;14.492;2022-12-18T00:36:29;7.75;;;5.47;;
74152;SDS011;62505;46.070;14.492;2022-12-18T00:38:58;7.57;;;4.82;;
74152;SDS011;62505;46.070;14.492;2022-12-18T00:41:26;8.90;;;5.18;;
74152;SDS011;62505;46.070;14.492;2022-12-18T00:44:12;8.48;;;5.13;;
74152;SDS011;62505;46.070;14.492;2022-12-18T00:46:42;7.32;;;4.93;;
74152;SDS011;62505;46.070;14.492;2022-12-18T00:49:10;7.22;;;5.32;;
74152;SDS011;62505;46.070;14.492;2022-12-18T00:51:39;8.15;;;5.40;;
74152;SDS011;62505;46.070;14.492;2022-12-18T00:54:06;9.88;;;5.32;;
74152;SDS011;62505;46.070;14.492;2022-12-18T00:56:34;7.32;;;5.47;;
74152;SDS011;62505;46.070;14.492;2022-12-18T00:59:02;8.88;;;5.32;;
74152;SDS011;62505;46.070;14.492;2022-12-18T01:01:29;7.43;;;5.30;;
74152;SDS011;62505;46.070;14.492;2022-12-18T01:03:58;6.03;;;4.85;;
74152;SDS011;62505;46.070;14.492;2022-12-18T01:06:26;7.38;;;5.13;;
74152;SDS011;62505;46.070;14.492;2022-12-18T01:08:53;6.00;;;4.38;;
74152;SDS011;62505;46.070;14.492;2022-12-18T01:11:20;7.82;;;4.97;;
74152;SDS011;62505;46.070;14.492;2022-12-18T01:13:47;7.80;;;5.50;;
74152;SDS011;62505;46.070;14.492;2022-12-18T01:16:16;6.60;;;5.20;;
74152;SDS011;62505;46.070;14.492;2022-12-18T01:18:43;8.70;;;5.43;;
74152;SDS011;62505;46.070;14.492;2022-12-18T01:21:13;8.77;;;5.50;;
74152;SDS011;62505;46.070;14.492;2022-12-18T01:23:40;7.03;;;4.78;;
74152;SDS011;62505;46.070;14.492;2022-12-18T01:26:08;5.35;;;4.65;;
74152;SDS011;62505;46.070;14.492;2022-12-18T01:28:36;5.68;;;4.95;;
74152;SDS011;62505;46.070;14.492;2022-12-18T01:31:13;7.97;;;5.45;;
74152;SDS011;62505;46.070;14.492;2022-12-18T01:33:42;5.75;;;4.38;;
74152;SDS011;62505;46.070;14.492;2022-12-18T01:36:15;6.55;;;4.85;;
74152;SDS011;62505;46.070;14.492;2022-12-18T01:38:43;5.90;;;4.75;;
74152;SDS011;62505;46.070;14.492;2022-12-18T01:41:10;7.13;;;5.05;;
74152;SDS011;62505;46.070;14.492;2022-12-18T01:43:41;6.45;;;4.78;;
74152;SDS011;62505;46.070;14.492;2022-12-18T01:46:09;6.60;;;5.07;;
74152;SDS011;62505;46.070;14.492;2022-12-18T01:48:36;6.80;;;4.82;;
74152;SDS011;62505;46.070;14.492;2022-12-18T01:51:04;7.25;;;4.93;;
74152;SDS011;62505;46.070;14.492;2022-12-18T01:53:34;6.90;;;4.60;;
74152;SDS011;62505;46.070;14.492;2022-12-18T01:56:02;7.40;;;4.63;;
74152;SDS011;62505;46.070;14.492;2022-12-18T01:58:30;9.85;;;4.95;;
74152;SDS011;62505;46.070;14.492;2022-12-18T02:01:05;7.32;;;4.88;;
74152;SDS011;62505;46.070;14.492;2022-12-18T02:03:32;6.25;;;4.97;;
74152;SDS011;62505;46.070;14.492;2022-12-18T02:06:00;6.68;;;4.82;;
74152;SDS011;62505;46.070;14.492;2022-12-18T02:08:37;6.13;;;4.68;;
74152;SDS011;62505;46.070;14.492;2022-12-18T02:11:13;6.15;;;4.53;;
74152;SDS011;62505;46.070;14.492;2022-12-18T02:13:50;6.47;;;4.47;;
74152;SDS011;62505;46.070;14.492;2022-12-18T02:16:24;6.82;;;4.78;;
74152;SDS011;62505;46.070;14.492;2022-12-18T02:18:56;7.40;;;4.63;;
74152;SDS011;62505;46.070;14.492;2022-12-18T02:21:29;7.45;;;4.93;;
74152;SDS011;62505;46.070;14.492;2022-12-18T02:24:07;6.72;;;4.97;;
74152;SDS011;62505;46.070;14.492;2022-12-18T02:26:45;7.57;;;5.10;;
74152;SDS011;62505;46.070;14.492;2022-12-18T02:29:16;6.53;;;4.82;;
74152;SDS011;62505;46.070;14.492;2022-12-18T02:31:48;6.10;;;4.57;;
74152;SDS011;62505;46.070;14.492;2022-12-18T02:34:18;7.78;;;5.20;;
74152;SDS011;62505;46.070;14.492;2022-12-18T02:36:47;5.43;;;4.30;;
74152;SDS011;62505;46.070;14.492;2022-12-18T02:39:16;7.43;;;5.50;;
74152;SDS011;62505;46.070;14.492;2022-12-18T02:41:45;6.90;;;4.97;;
74152;SDS011;62505;46.070;14.492;2022-12-18T02:44:13;7.15;;;5.07;;
74152;SDS011;62505;46.070;14.492;2022-12-18T02:46:41;7.65;;;4.80;;
74152;SDS011;62505;46.070;14.492;2022-12-18T02:49:12;7.28;;;4.55;;
74152;SDS011;62505;46.070;14.492;2022-12-18T02:51:50;7.82;;;4.65;;
74152;SDS011;62505;46.070;14.492;2022-12-18T02:54:22;7.72;;;4.65;;
74152;SDS011;62505;46.070;14.492;2022-12-18T02:57:00;6.25;;;4.65;;
74152;SDS011;62505;46.070;14.492;2022-12-18T02:59:34;6.28;;;4.70;;
74152;SDS011;62505;46.070;14.492;2022-12-18T03:02:07;8.20;;;5.13;;
74152;SDS011;62505;46.070;14.492;2022-12-18T03:04:47;8.75;;;4.55;;
74152;SDS011;62505;46.070;14.492;2022-12-18T03:07:17;7.97;;;4.82;;
74152;SDS011;62505;46.070;14.492;2022-12-18T03:09:50;5.85;;;4.35;;
74152;SDS011;62505;46.070;14.492;2022-12-18T03:12:21;7.72;;;5.55;;
74152;SDS011;62505;46.070;14.492;2022-12-18T03:14:54;6.57;;;4.55;;
74152;SDS011;62505;46.070;14.492;2022-12-18T03:17:26;6.70;;;5.07;;
74152;SDS011;62505;46.070;14.492;2022-12-18T03:19:57;6.75;;;4.88;;
74152;SDS011;62505;46.070;14.492;2022-12-18T03:22:28;6.72;;;4.72;;
74152;SDS011;62505;46.070;14.492;2022-12-18T03:24:58;6.30;;;4.60;;
74152;SDS011;62505;46.070;14.492;2022-12-18T03:27:30;7.05;;;4.68;;
74152;SDS011;62505;46.070;14.492;2022-12-18T03:30:01;6.93;;;4.68;;
74152;SDS011;62505;46.070;14.492;2022-12-18T03:32:33;6.82;;;4.85;;
74152;SDS011;62505;46.070;14.492;2022-12-18T03:35:06;7.22;;;4.65;;
74152;SDS011;62505;46.070;14.492;2022-12-18T03:37:34;6.35;;;4.85;;
74152;SDS011;62505;46.070;14.492;2022-12-18T03:40:01;7.25;;;5.20;;
74152;SDS011;62505;46.070;14.492;2022-12-18T03:42:28;6.70;;;4.28;;
74152;SDS011;62505;46.070;14.492;2022-12-18T03:45:02;5.82;;;4.50;;
74152;SDS011;62505;46.070;14.492;2022-12-18T03:47:35;6.60;;;4.40;;
74152;SDS011;62505;46.070;14.492;2022-12-18T03:50:07;6.47;;;4.80;;
74152;SDS011;62505;46.070;14.492;2022-12-18T03:52:41;5.93;;;4.47;;
74152;SDS011;62505;46.070;14.492;2022-12-18T03:55:12;5.32;;;4.63;;
74152;SDS011;62505;46.070;14.492;2022-12-18T03:57:40;5.07;;;4.32;;
74152;SDS011;62505;46.070;14.492;2022-12-18T04:00:10;6.07;;;4.50;;
74152;SDS011;62505;46.070;14.492;2022-12-18T04:02:40;5.63;;;4.25;;
74152;SDS011;62505;46.070;14.492;2022-12-18T04:05:10;6.43;;;4.53;;
74152;SDS011;62505;46.070;14.492;2022-12-18T04:07:39;6.85;;;5.03;;
74152;SDS011;62505;46.070;14.492;2022-12-18T04:10:07;6.25;;;4.47;;
74152;SDS011;62505;46.070;14.492;2022-12-18T04:12:36;8.43;;;5.18;;
74152;SDS011;62505;46.070;14.492;2022-12-18T04:15:05;5.72;;;4.25;;
74152;SDS011;62505;46.070;14.492;2022-12-18T04:17:33;6.13;;;4.32;;
74152;SDS011;62505;46.070;14.492;2022-12-18T04:20:00;5.30;;;4.53;;
74152;SDS011;62505;46.070;14.492;2022-12-18T04:22:27;6.28;;;4.45;;
74152;SDS011;62505;46.070;14.492;2022-12-18T04:24:54;5.80;;;4.38;;
74152;SDS011;62505;46.070;14.492;2022-12-18T04:27:21;6.18;;;4.57;;
74152;SDS011;62505;46.070;14.492;2022-12-18T04:29:48;5.90;;;4.25;;
74152;SDS011;62505;46.070;14.492;2022-12-18T04:32:16;5.85;;;4.43;;
74152;SDS011;62505;46.070;14.492;2022-12-18T04:34:43;6.25;;;4.95;;
74152;SDS011;62505;46.070;14.492;2022-12-18T04:37:10;6.65;;;4.82;;
74152;SDS011;62505;46.070;14.492;2022-12-18T04:39:37;6.05;;;4.32;;
74152;SDS011;62505;46.070;14.492;2022-12-18T04:42:04;6.80;;;5.10;;
74152;SDS011;62505;46.070;14.492;2022-12-18T04:44:31;6.25;;;4.55;;
74152;SDS011;62505;46.070;14.492;2022-12-18T04:46:58;5.13;;;4.22;;
74152;SDS011;62505;46.070;14.492;2022-12-18T04:49:26;4.90;;;4.07;;
74152;SDS011;62505;46.070;14.492;2022-12-18T04:51:53;6.75;;;4.82;;
74152;SDS011;62505;46.070;14.492;2022-12-18T04:54:20;5.95;;;4.35;;
74152;SDS011;62505;46.070;14.492;2022-12-18T04:56:46;5.60;;;4.22;;
74152;SDS011;62505;46.070;14.492;2022-12-18T04:59:13;6.28;;;4.57;;
74152;SDS011;62505;46.070;14.492;2022-12-18T05:01:40;5.32;;;4.20;;
74152;SDS011;62505;46.070;14.492;2022-12-18T05:04:07;5.93;;;4.40;;
74152;SDS011;62505;46.070;14.492;2022-12-18T05:06:35;6.65;;;4.40;;
74152;SDS011;62505;46.070;14.492;2022-12-18T05:09:02;6.38;;;4.57;;
74152;SDS011;62505;46.070;14.492;2022-12-18T05:11:29;6.53;;;4.40;;
74152;SDS011;62505;46.070;14.492;2022-12-18T05:13:56;5.72;;;4.10;;
74152;SDS011;62505;46.070;14.492;2022-12-18T05:16:23;5.60;;;3.97;;
74152;SDS011;62505;46.070;14.492;2022-12-18T05:18:50;6.57;;;4.70;;
74152;SDS011;62505;46.070;14.492;2022-12-18T05:21:17;7.70;;;4.40;;
74152;SDS011;62505;46.070;14.492;2022-12-18T05:23:45;6.22;;;4.22;;
74152;SDS011;62505;46.070;14.492;2022-12-18T05:26:14;7.07;;;4.65;;
74152;SDS011;62505;46.070;14.492;2022-12-18T05:28:42;5.95;;;4.38;;
74152;SDS011;62505;46.070;14.492;2022-12-18T05:31:09;5.70;;;4.60;;
74152;SDS011;62505;46.070;14.492;2022-12-18T05:33:37;6.32;;;4.20;;
74152;SDS011;62505;46.070;14.492;2022-12-18T05:36:05;4.95;;;4.35;;
74152;SDS011;62505;46.070;14.492;2022-12-18T05:38:34;5.93;;;4.45;;
74152;SDS011;62505;46.070;14.492;2022-12-18T05:41:03;7.03;;;4.68;;
74152;SDS011;62505;46.070;14.492;2022-12-18T05:43:31;5.68;;;4.38;;
74152;SDS011;62505;46.070;14.492;2022-12-18T05:46:02;5.30;;;3.70;;
74152;SDS011;62505;46.070;14.492;2022-12-18T05:48:30;5.43;;;4.05;;
74152;SDS011;62505;46.070;14.492;2022-12-18T05:51:02;5.60;;;4.35;;
74152;SDS011;62505;46.070;14.492;2022-12-18T05:53:31;5.05;;;4.10;;
74152;SDS011;62505;46.070;14.492;2022-12-18T05:55:59;4.75;;;3.85;;
74152;SDS011;62505;46.070;14.492;2022-12-18T05:58:28;5.60;;;3.92;;
74152;SDS011;62505;46.070;14.492;2022-12-18T06:00:55;6.13;;;4.47;;
74152;SDS011;62505;46.070;14.492;2022-12-18T06:03:22;5.60;;;4.32;;
74152;SDS011;62505;46.070;14.492;2022-12-18T06:05:50;5.30;;;4.32;;
74152;SDS011;62505;46.070;14.492;2022-12-18T06:08:17;4.82;;;3.95;;
74152;SDS011;62505;46.070;14.492;2022-12-18T06:10:49;4.80;;;3.90;;
74152;SDS011;62505;46.070;14.492;2022-12-18T06:13:17;7.03;;;4.72;;
74152;SDS011;62505;46.070;14.492;2022-12-18T06:15:46;5.60;;;4.40;;
74152;SDS011;62505;46.070;14.492;2022-12-18T06:18:13;5.55;;;4.57;;
74152;SDS011;62505;46.070;14.492;2022-12-18T06:20:40;5.07;;;4.15;;
74152;SDS011;62505;46.070;14.492;2022-12-18T06:23:07;4.55;;;4.05;;
74152;SDS011;62505;46.070;14.492;2022-12-18T06:25:36;5.85;;;4.60;;
74152;SDS011;62505;46.070;14.492;2022-12-18T06:28:04;5.25;;;3.95;;
74152;SDS011;62505;46.070;14.492;2022-12-18T06:30:31;5.88;;;4.50;;
74152;SDS011;62505;46.070;14.492;2022-12-18T06:32:59;6.28;;;4.15;;
74152;SDS011;62505;46.070;14.492;2022-12-18T06:35:26;5.80;;;4.38;;
74152;SDS011;62505;46.070;14.492;2022-12-18T06:37:53;5.38;;;4.32;;
74152;SDS011;62505;46.070;14.492;2022-12-18T06:40:20;5.28;;;4.07;;
74152;SDS011;62505;46.070;14.492;2022-12-18T06:42:47;5.50;;;4.30;;
74152;SDS011;62505;46.070;14.492;2022-12-18T06:45:14;6.60;;;3.88;;
74152;SDS011;62505;46.070;14.492;2022-12-18T06:47:41;5.40;;;4.10;;
74152;SDS011;62505;46.070;14.492;2022-12-18T06:50:09;5.85;;;4.18;;
74152;SDS011;62505;46.070;14.492;2022-12-18T06:52:36;5.85;;;4.60;;
74152;SDS011;62505;46.070;14.492;2022-12-18T06:55:04;6.70;;;4.32;;
74152;SDS011;62505;46.070;14.492;2022-12-18T06:57:32;5.22;;;3.88;;
74152;SDS011;62505;46.070;14.492;2022-12-18T06:59:59;8.35;;;4.50;;
74152;SDS011;62505;46.070;14.492;2022-12-18T07:02:25;5.82;;;4.20;;
74152;SDS011;62505;46.070;14.492;2022-12-18T07:04:52;4.13;;;3.63;;
74152;SDS011;62505;46.070;14.492;2022-12-18T07:07:21;5.75;;;4.20;;
74152;SDS011;62505;46.070;14.492;2022-12-18T07:09:49;5.18;;;3.83;;
74152;SDS011;62505;46.070;14.492;2022-12-18T07:12:16;4.50;;;3.80;;
74152;SDS011;62505;46.070;14.492;2022-12-18T07:14:43;5.53;;;4.05;;
74152;SDS011;62505;46.070;14.492;2022-12-18T07:17:10;4.25;;;3.53;;
74152;SDS011;62505;46.070;14.492;2022-12-18T07:19:37;5.57;;;4.75;;
74152;SDS011;62505;46.070;14.492;2022-12-18T07:22:04;5.30;;;3.88;;
74152;SDS011;62505;46.070;14.492;2022-12-18T07:24:33;5.78;;;4.18;;
74152;SDS011;62505;46.070;14.492;2022-12-18T07:27:00;5.15;;;4.30;;
74152;SDS011;62505;46.070;14.492;2022-12-18T07:29:27;4.88;;;3.83;;
74152;SDS011;62505;46.070;14.492;2022-12-18T07:31:54;5.55;;;3.67;;
74152;SDS011;62505;46.070;14.492;2022-12-18T07:34:21;5.55;;;3.80;;
74152;SDS011;62505;46.070;14.492;2022-12-18T07:36:48;5.60;;;4.03;;
74152;SDS011;62505;46.070;14.492;2022-12-18T07:39:14;5.72;;;4.47;;
74152;SDS011;62505;46.070;14.492;2022-12-18T07:41:43;5.15;;;4.03;;
74152;SDS011;62505;46.070;14.492;2022-12-18T07:44:29;5.90;;;4.15;;
74152;SDS011;62505;46.070;14.492;2022-12-18T07:46:56;5.35;;;4.28;;
74152;SDS011;62505;46.070;14.492;2022-12-18T07:49:23;6.15;;;4.28;;
74152;SDS011;62505;46.070;14.492;2022-12-18T07:51:50;6.35;;;4.47;;
74152;SDS011;62505;46.070;14.492;2022-12-18T07:54:17;5.30;;;4.03;;
74152;SDS011;62505;46.070;14.492;2022-12-18T07:56:45;7.07;;;4.35;;
74152;SDS011;62505;46.070;14.492;2022-12-18T07:59:12;5.00;;;4.32;;
74152;SDS011;62505;46.070;14.492;2022-12-18T08:01:39;4.72;;;3.83;;
74152;SDS011;62505;46.070;14.492;2022-12-18T08:04:06;8.60;;;4.68;;
74152;SDS011;62505;46.070;14.492;2022-12-18T08:06:33;5.15;;;4.45;;
74152;SDS011;62505;46.070;14.492;2022-12-18T08:09:00;5.68;;;4.38;;
74152;SDS011;62505;46.070;14.492;2022-12-18T08:11:27;6.00;;;4.20;;
74152;SDS011;62505;46.070;14.492;2022-12-18T08:13:56;12.20;;;5.03;;
74152;SDS011;62505;46.070;14.492;2022-12-18T08:16:23;5.47;;;4.35;;
74152;SDS011;62505;46.070;14.492;2022-12-18T08:18:51;5.82;;;4.60;;
74152;SDS011;62505;46.070;14.492;2022-12-18T08:21:19;4.55;;;4.03;;
74152;SDS011;62505;46.070;14.492;2022-12-18T08:23:47;9.65;;;6.43;;
74152;SDS011;62505;46.070;14.492;2022-12-18T08:26:15;11.55;;;8.57;;
74152;SDS011;62505;46.070;14.492;2022-12-18T08:28:42;17.25;;;8.65;;
74152;SDS011;62505;46.070;14.492;2022-12-18T08:31:11;13.73;;;8.25;;
74152;SDS011;62505;46.070;14.492;2022-12-18T08:33:38;14.88;;;7.95;;
74152;SDS011;62505;46.070;14.492;2022-12-18T08:36:06;12.95;;;7.47;;
74152;SDS011;62505;46.070;14.492;2022-12-18T08:38:34;11.18;;;7.22;;
74152;SDS011;62505;46.070;14.492;2022-12-18T08:41:02;16.42;;;7.45;;
74152;SDS011;62505;46.070;14.492;2022-12-18T08:43:30;12.02;;;6.75;;
74152;SDS011;62505;46.070;14.492;2022-12-18T08:46:16;9.50;;;7.25;;
74152;SDS011;62505;46.070;14.492;2022-12-18T08:48:43;14.02;;;8.02;;
74152;SDS011;62505;46.070;14.492;2022-12-18T08:51:10;15.57;;;8.57;;
74152;SDS011;62505;46.070;14.492;2022-12-18T08:53:37;10.52;;;7.43;;
74152;SDS011;62505;46.070;14.492;2022-12-18T08:56:04;9.88;;;7.07;;
74152;SDS011;62505;46.070;14.492;2022-12-18T08:58:31;11.13;;;6.85;;
74152;SDS011;62505;46.070;14.492;2022-12-18T09:00:59;13.05;;;7.55;;
74152;SDS011;62505;46.070;14.492;2022-12-18T09:03:28;10.10;;;7.75;;
74152;SDS011;62505;46.070;14.492;2022-12-18T09:05:55;13.75;;;8.20;;
74152;SDS011;62505;46.070;14.492;2022-12-18T09:08:22;11.05;;;7.72;;
74152;SDS011;62505;46.070;14.492;2022-12-18T09:10:49;12.38;;;8.02;;
74152;SDS011;62505;46.070;14.492;2022-12-18T09:13:17;9.75;;;7.53;;
74152;SDS011;62505;46.070;14.492;2022-12-18T09:15:45;10.82;;;7.45;;
74152;SDS011;62505;46.070;14.492;2022-12-18T09:18:17;12.48;;;7.88;;
74152;SDS011;62505;46.070;14.492;2022-12-18T09:20:49;8.43;;;6.97;;
74152;SDS011;62505;46.070;14.492;2022-12-18T09:23:18;11.18;;;7.32;;
74152;SDS011;62505;46.070;14.492;2022-12-18T09:25:45;12.18;;;6.97;;
74152;SDS011;62505;46.070;14.492;2022-12-18T09:28:14;13.98;;;7.55;;
74152;SDS011;62505;46.070;14.492;2022-12-18T09:30:43;11.02;;;7.20;;
74152;SDS011;62505;46.070;14.492;2022-12-18T09:33:11;10.88;;;7.20;;
74152;SDS011;62505;46.070;14.492;2022-12-18T09:35:39;10.45;;;6.82;;
74152;SDS011;62505;46.070;14.492;2022-12-18T09:38:08;10.05;;;7.05;;
74152;SDS011;62505;46.070;14.492;2022-12-18T09:40:39;8.70;;;7.40;;
74152;SDS011;62505;46.070;14.492;2022-12-18T09:43:10;11.63;;;7.10;;
74152;SDS011;62505;46.070;14.492;2022-12-18T09:45:43;13.23;;;7.15;;
74152;SDS011;62505;46.070;14.492;2022-12-18T09:48:14;9.75;;;7.32;;
74152;SDS011;62505;46.070;14.492;2022-12-18T09:50:45;14.32;;;6.72;;
74152;SDS011;62505;46.070;14.492;2022-12-18T09:53:15;10.60;;;7.47;;
74152;SDS011;62505;46.070;14.492;2022-12-18T09:55:49;7.80;;;6.25;;
74152;SDS011;62505;46.070;14.492;2022-12-18T09:58:20;10.05;;;7.07;;
74152;SDS011;62505;46.070;14.492;2022-12-18T10:00:53;9.75;;;6.90;;
74152;SDS011;62505;46.070;14.492;2022-12-18T10:03:21;8.55;;;6.57;;
74152;SDS011;62505;46.070;14.492;2022-12-18T10:05:51;10.52;;;6.80;;
74152;SDS011;62505;46.070;14.492;2022-12-18T10:08:27;9.95;;;7.00;;
74152;SDS011;62505;46.070;14.492;2022-12-18T10:13:54;11.93;;;7.00;;
74152;SDS011;62505;46.070;14.492;2022-12-18T10:16:27;10.95;;;7.03;;
74152;SDS011;62505;46.070;14.492;2022-12-18T10:19:07;10.00;;;7.35;;
74152;SDS011;62505;46.070;14.492;2022-12-18T10:21:49;11.00;;;7.28;;
74152;SDS011;62505;46.070;14.492;2022-12-18T10:24:26;9.82;;;6.72;;
74152;SDS011;62505;46.070;14.492;2022-12-18T10:27:04;10.38;;;7.45;;
74152;SDS011;62505;46.070;14.492;2022-12-18T10:29:38;10.05;;;6.68;;
74152;SDS011;62505;46.070;14.492;2022-12-18T10:32:06;9.05;;;7.28;;
74152;SDS011;62505;46.070;14.492;2022-12-18T10:34:35;9.68;;;6.93;;
74152;SDS011;62505;46.070;14.492;2022-12-18T10:37:03;9.50;;;6.90;;
74152;SDS011;62505;46.070;14.492;2022-12-18T10:39:39;11.13;;;7.55;;
74152;SDS011;62505;46.070;14.492;2022-12-18T10:42:09;9.48;;;7.28;;
74152;SDS011;62505;46.070;14.492;2022-12-18T10:44:40;13.05;;;7.07;;
74152;SDS011;62505;46.070;14.492;2022-12-18T10:47:11;10.70;;;7.40;;
74152;SDS011;62505;46.070;14.492;2022-12-18T10:49:41;9.95;;;6.97;;
74152;SDS011;62505;46.070;14.492;2022-12-18T10:52:14;10.18;;;7.20;;
74152;SDS011;62505;46.070;14.492;2022-12-18T10:54:49;9.68;;;6.78;;
74152;SDS011;62505;46.070;14.492;2022-12-18T10:57:27;8.57;;;6.70;;
74152;SDS011;62505;46.070;14.492;2022-12-18T10:59:58;9.45;;;7.25;;
74152;SDS011;62505;46.070;14.492;2022-12-18T11:02:28;11.20;;;7.72;;
74152;SDS011;62505;46.070;14.492;2022-12-18T11:05:01;10.13;;;6.60;;
74152;SDS011;62505;46.070;14.492;2022-12-18T11:07:40;12.85;;;6.72;;
74152;SDS011;62505;46.070;14.492;2022-12-18T11:10:17;9.82;;;6.93;;
74152;SDS011;62505;46.070;14.492;2022-12-18T11:12:44;8.90;;;6.47;;
74152;SDS011;62505;46.070;14.492;2022-12-18T11:15:14;10.55;;;6.65;;
74152;SDS011;62505;46.070;14.492;2022-12-18T11:17:42;11.15;;;6.90;;
74152;SDS011;62505;46.070;14.492;2022-12-18T11:20:26;9.93;;;7.28;;
74152;SDS011;62505;46.070;14.492;2022-12-18T11:22:58;8.75;;;6.85;;
74152;SDS011;62505;46.070;14.492;2022-12-18T11:25:30;8.65;;;6.97;;
74152;SDS011;62505;46.070;14.492;2022-12-18T11:27:59;12.05;;;7.35;;
74152;SDS011;62505;46.070;14.492;2022-12-18T11:30:28;8.40;;;6.70;;
74152;SDS011;62505;46.070;14.492;2022-12-18T11:32:58;9.23;;;7.38;;
74152;SDS011;62505;46.070;14.492;2022-12-18T11:35:35;9.68;;;7.18;;
74152;SDS011;62505;46.070;14.492;2022-12-18T11:38:20;11.35;;;7.63;;
74152;SDS011;62505;46.070;14.492;2022-12-18T11:40:52;8.52;;;6.93;;
74152;SDS011;62505;46.070;14.492;2022-12-18T11:43:25;10.77;;;7.15;;
74152;SDS011;62505;46.070;14.492;2022-12-18T11:45:55;13.68;;;7.38;;
74152;SDS011;62505;46.070;14.492;2022-12-18T11:48:27;10.98;;;7.35;;
74152;SDS011;62505;46.070;14.492;2022-12-18T11:50:57;9.18;;;7.88;;
74152;SDS011;62505;46.070;14.492;2022-12-18T11:53:25;10.90;;;6.93;;
74152;SDS011;62505;46.070;14.492;2022-12-18T11:56:05;10.80;;;7.00;;
74152;SDS011;62505;46.070;14.492;2022-12-18T11:58:46;9.77;;;6.90;;
74152;SDS011;62505;46.070;14.492;2022-12-18T12:01:18;11.15;;;8.23;;
74152;SDS011;62505;46.070;14.492;2022-12-18T12:04:04;9.90;;;7.32;;
74152;SDS011;62505;46.070;14.492;2022-12-18T12:06:40;10.93;;;7.30;;
74152;SDS011;62505;46.070;14.492;2022-12-18T12:09:15;10.57;;;7.75;;
74152;SDS011;62505;46.070;14.492;2022-12-18T12:11:52;10.43;;;6.50;;
74152;SDS011;62505;46.070;14.492;2022-12-18T12:14:44;9.55;;;7.78;;
74152;SDS011;62505;46.070;14.492;2022-12-18T12:17:22;12.02;;;7.25;;
74152;SDS011;62505;46.070;14.492;2022-12-18T12:19:59;9.10;;;6.80;;
74152;SDS011;62505;46.070;14.492;2022-12-18T12:22:36;10.38;;;7.85;;
74152;SDS011;62505;46.070;14.492;2022-12-18T12:28:15;8.80;;;7.00;;
74152;SDS011;62505;46.070;14.492;2022-12-18T12:30:52;9.85;;;7.18;;
74152;SDS011;62505;46.070;14.492;2022-12-18T12:33:27;10.98;;;7.65;;
74152;SDS011;62505;46.070;14.492;2022-12-18T12:36:08;11.95;;;7.00;;
74152;SDS011;62505;46.070;14.492;2022-12-18T12:38:44;10.27;;;7.75;;
74152;SDS011;62505;46.070;14.492;2022-12-18T12:41:17;11.55;;;7.80;;
74152;SDS011;62505;46.070;14.492;2022-12-18T12:44:07;14.07;;;7.88;;
74152;SDS011;62505;46.070;14.492;2022-12-18T12:46:41;8.77;;;6.72;;
74152;SDS011;62505;46.070;14.492;2022-12-18T12:49:10;9.15;;;7.45;;
74152;SDS011;62505;46.070;14.492;2022-12-18T12:51:40;10.45;;;7.68;;
74152;SDS011;62505;46.070;14.492;2022-12-18T12:54:11;10.75;;;7.88;;
74152;SDS011;62505;46.070;14.492;2022-12-18T12:56:44;10.82;;;7.85;;
74152;SDS011;62505;46.070;14.492;2022-12-18T12:59:22;10.02;;;6.97;;
74152;SDS011;62505;46.070;14.492;2022-12-18T13:01:57;11.02;;;8.32;;
74152;SDS011;62505;46.070;14.492;2022-12-18T13:04:32;10.35;;;7.35;;
74152;SDS011;62505;46.070;14.492;2022-12-18T13:07:03;11.95;;;7.22;;
74152;SDS011;62505;46.070;14.492;2022-12-18T13:12:46;11.52;;;7.10;;
74152;SDS011;62505;46.070;14.492;2022-12-18T13:15:27;12.00;;;8.05;;
74152;SDS011;62505;46.070;14.492;2022-12-18T13:20:48;11.77;;;7.95;;
74152;SDS011;62505;46.070;14.492;2022-12-18T13:23:25;11.20;;;7.53;;
74152;SDS011;62505;46.070;14.492;2022-12-18T13:29:00;12.27;;;7.30;;
74152;SDS011;62505;46.070;14.492;2022-12-18T13:34:28;10.60;;;7.25;;
74152;SDS011;62505;46.070;14.492;2022-12-18T13:36:56;10.75;;;7.80;;
74152;SDS011;62505;46.070;14.492;2022-12-18T13:39:44;11.40;;;7.97;;
74152;SDS011;62505;46.070;14.492;2022-12-18T13:45:40;13.00;;;7.70;;
74152;SDS011;62505;46.070;14.492;2022-12-18T13:48:21;10.52;;;7.40;;
74152;SDS011;62505;46.070;14.492;2022-12-18T13:50:55;10.75;;;7.00;;
74152;SDS011;62505;46.070;14.492;2022-12-18T13:53:26;9.38;;;7.20;;
74152;SDS011;62505;46.070;14.492;2022-12-18T13:55:56;10.35;;;7.30;;
74152;SDS011;62505;46.070;14.492;2022-12-18T13:58:23;12.38;;;7.50;;
74152;SDS011;62505;46.070;14.492;2022-12-18T14:00:50;11.30;;;7.03;;
74152;SDS011;62505;46.070;14.492;2022-12-18T14:03:18;10.55;;;7.78;;
74152;SDS011;62505;46.070;14.492;2022-12-18T14:05:52;11.40;;;7.15;;
74152;SDS011;62505;46.070;14.492;2022-12-18T14:08:26;9.90;;;7.00;;
74152;SDS011;62505;46.070;14.492;2022-12-18T14:10:58;9.45;;;6.90;;
74152;SDS011;62505;46.070;14.492;2022-12-18T14:13:27;12.07;;;7.63;;
74152;SDS011;62505;46.070;14.492;2022-12-18T14:15:55;12.13;;;7.35;;
74152;SDS011;62505;46.070;14.492;2022-12-18T14:18:26;13.63;;;7.28;;
74152;SDS011;62505;46.070;14.492;2022-12-18T14:20:59;10.13;;;7.47;;
74152;SDS011;62505;46.070;14.492;2022-12-18T14:23:29;10.05;;;6.80;;
74152;SDS011;62505;46.070;14.492;2022-12-18T14:25:58;12.43;;;7.55;;
74152;SDS011;62505;46.070;14.492;2022-12-18T14:28:26;10.18;;;7.78;;
74152;SDS011;62505;46.070;14.492;2022-12-18T14:30:53;9.95;;;7.75;;
74152;SDS011;62505;46.070;14.492;2022-12-18T14:33:22;12.95;;;7.25;;
74152;SDS011;62505;46.070;14.492;2022-12-18T14:35:55;9.68;;;6.63;;
74152;SDS011;62505;46.070;14.492;2022-12-18T14:38:25;11.40;;;7.05;;
74152;SDS011;62505;46.070;14.492;2022-12-18T14:40:59;10.23;;;7.35;;
74152;SDS011;62505;46.070;14.492;2022-12-18T14:43:28;11.98;;;7.68;;
74152;SDS011;62505;46.070;14.492;2022-12-18T14:45:57;11.60;;;7.50;;
74152;SDS011;62505;46.070;14.492;2022-12-18T14:48:32;11.73;;;7.53;;
74152;SDS011;62505;46.070;14.492;2022-12-18T14:51:04;13.00;;;7.00;;
74152;SDS011;62505;46.070;14.492;2022-12-18T14:53:33;12.43;;;7.53;;
74152;SDS011;62505;46.070;14.492;2022-12-18T14:56:03;9.65;;;7.18;;
74152;SDS011;62505;46.070;14.492;2022-12-18T14:58:39;12.95;;;7.43;;
74152;SDS011;62505;46.070;14.492;2022-12-18T15:01:17;15.05;;;8.02;;
74152;SDS011;62505;46.070;14.492;2022-12-18T15:03:45;10.55;;;7.13;;
74152;SDS011;62505;46.070;14.492;2022-12-18T15:06:17;11.52;;;7.57;;
74152;SDS011;62505;46.070;14.492;2022-12-18T15:08:51;11.10;;;7.65;;
74152;SDS011;62505;46.070;14.492;2022-12-18T15:11:28;13.18;;;7.10;;